PDT,Max TemperatureF,Mean TemperatureF,Min TemperatureF,Max Dew PointF,MeanDew PointF,Min DewpointF,Max Humidity, Mean Humidity, Min Humidity, Max Sea Level PressureIn, Mean Sea Level PressureIn, Min Sea Level PressureIn, Max VisibilityMiles, Mean VisibilityMiles, Min VisibilityMiles, Max Wind SpeedMPH, Mean Wind SpeedMPH, Max Gust SpeedMPH,PrecipitationIn, CloudCover, Events, WindDirDegrees
2013-9-1,82,71,60,59,57,53,90,66,39,29.91,29.87,29.81,10,10,8,9,3,,0.00,2,,176
2013-9-2,82,71,61,58,56,54,87,62,41,29.96,29.90,29.88,10,10,9,6,2,,0.00,1,,158
2013-9-3,73,68,62,63,61,58,100,86,57,30.04,29.99,29.95,10,9,3,7,2,,0.16,6,Rain-Thunderstorm,315
2013-9-4,70,65,60,62,60,57,94,83,70,30.07,30.04,30.00,10,9,5,10,3,,0.02,5,Rain,330
2013-9-5,68,64,62,61,55,43,94,76,48,30.05,30.01,29.95,10,8,2,12,3,,0.61,6,Rain-Thunderstorm,295
2013-9-6,72,65,60,61,49,44,90,61,39,30.14,30.02,29.96,10,6,2,12,3,,1.10,7,Rain-Thunderstorm,150
2013-9-7,73,67,61,61,60,59,97,83,61,30.12,30.08,30.03,10,10,10,8,2,,0.00,5,Rain,320
2013-9-8,78,67,57,63,60,55,96,82,56,30.13,30.09,30.04,10,10,6,9,2,,0.00,3,,325
2013-9-9,77,68,60,62,59,57,96,82,56,30.09,30.04,29.99,10,8,3,9,2,,0.00,4,,321
2013-9-10,78,68,59,63,60,57,96,82,58,30.01,29.97,29.89,10,8,1,13,7,,0.00,3,,324
2013-9-11,89,74,59,63,61,57,93,68,35,29.95,29.92,29.87,10,10,5,12,6,,0.00,0,,321
2013-9-12,79,69,60,63,60,59,96,80,52,30.02,29.97,29.92,10,9,5,7,3,,0.00,3,,176
2013-9-13,66,63,60,61,60,59,100,88,78,29.99,29.95,29.90,10,8,2,6,3,,0.00,7,,178
2013-9-14,69,65,61,61,60,59,97,85,78,29.89,29.83,29.75,10,8,5,7,1,,0.00,6,,309
2013-9-15,66,63,60,62,60,59,100,92,79,29.84,29.78,29.72,10,8,1,10,2,,0.07,8,Rain,166
2013-9-16,70,65,60,60,57,51,93,80,57,29.95,29.91,29.83,10,10,4,9,5,,0.00,7,Rain,129
2013-9-17,64,60,57,53,51,49,87,71,63,29.96,29.91,29.88,10,10,10,6,2,,0.00,8,,39
2013-9-18,69,63,55,54,52,48,89,76,49,30.09,30.03,29.95,10,10,10,9,3,,0.00,4,,162
2013-9-19,77,62,48,54,51,46,96,72,43,30.06,29.91,29.78,10,10,10,8,2,,0.00,0,,326
2013-9-20,75,62,52,53,50,47,90,68,42,29.78,29.69,29.62,10,10,4,12,5,17,0.07,1,Rain,141
2013-9-21,70,62,55,54,49,45,78,65,42,29.74,29.70,29.66,10,10,9,7,2,,0.00,5,,167
2013-9-22,62,58,55,55,49,24,94,73,28,29.78,29.68,29.59,10,9,2,14,6,22,0.39,7,Rain,152
2013-9-23,61,57,52,52,33,25,90,44,26,29.99,29.90,29.77,10,9,2,13,6,16,0.20,7,Rain,148
2013-9-24,64,56,48,48,32,25,88,47,26,29.98,29.92,29.86,10,10,10,9,2,,0.00,4,Rain,150
2013-9-25,59,54,48,45,43,40,86,69,51,30.06,29.94,29.87,10,10,3,10,3,,0.10,6,Rain,333
2013-9-26,62,52,43,49,44,39,87,78,54,30.16,30.11,30.04,10,8,1,7,3,,0.00,3,,143
2013-9-27,57,54,50,49,43,27,89,69,33,30.14,30.00,29.88,10,8,2,12,5,17,0.06,6,Rain,150
2013-9-28,63,58,53,36,31,27,44,38,35,29.86,29.55,29.38,10,6,1,12,5,18,1.63,8,Rain,142
2013-9-29,57,54,53,52,36,29,88,53,37,29.59,29.47,29.19,10,8,2,14,8,26,0.69,7,Rain,146
2013-9-30,57,52,48,52,48,43,92,84,77,29.96,29.74,29.49,10,8,2,15,8,28,0.78,7,Rain,156